sensor_id;sensor_type;location;lat;lon;timestamp;pressure;altitude;pressure_sealevel;temperature;humidity
50349;BME280;36250;48.740;22.174;2022-12-26T00:01:16;101110.38;;;4.52;100.00
50349;BME280;36250;48.740;22.174;2022-12-26T00:03:42;101120.72;;;4.53;100.00
50349;BME280;36250;48.740;22.174;2022-12-26T00:06:14;101110.81;;;4.57;100.00
50349;BME280;36250;48.740;22.174;2022-12-26T00:08:40;101112.06;;;4.62;100.00
50349;BME280;36250;48.740;22.174;2022-12-26T00:11:06;101110.16;;;4.64;100.00
50349;BME280;36250;48.740;22.174;2022-12-26T00:13:31;101103.44;;;4.72;100.00
50349;BME280;36250;48.740;22.174;2022-12-26T00:15:56;101101.81;;;4.81;100.00
50349;BME280;36250;48.740;22.174;2022-12-26T00:18:21;101098.66;;;4.87;100.00
50349;BME280;36250;48.740;22.174;2022-12-26T00:20:47;101086.13;;;4.90;100.00
50349;BME280;36250;48.740;22.174;2022-12-26T00:23:12;101087.66;;;4.93;100.00
50349;BME280;36250;48.740;22.174;2022-12-26T00:25:37;101088.47;;;4.93;100.00
50349;BME280;36250;48.740;22.174;2022-12-26T00:28:02;101088.47;;;4.93;100.00
50349;BME280;36250;48.740;22.174;2022-12-26T00:30:28;101089.75;;;4.99;100.00
50349;BME280;36250;48.740;22.174;2022-12-26T00:32:53;101080.50;;;5.05;100.00
50349;BME280;36250;48.740;22.174;2022-12-26T00:35:18;101070.56;;;5.08;100.00
50349;BME280;36250;48.740;22.174;2022-12-26T00:37:43;101070.69;;;5.07;100.00
50349;BME280;36250;48.740;22.174;2022-12-26T00:40:09;101066.00;;;5.11;100.00
50349;BME280;36250;48.740;22.174;2022-12-26T00:42:34;101071.38;;;5.09;100.00
50349;BME280;36250;48.740;22.174;2022-12-26T00:44:59;101080.22;;;5.08;100.00
50349;BME280;36250;48.740;22.174;2022-12-26T00:47:25;101079.16;;;5.11;100.00
50349;BME280;36250;48.740;22.174;2022-12-26T00:49:50;101079.72;;;5.14;100.00
50349;BME280;36250;48.740;22.174;2022-12-26T00:52:15;101082.78;;;5.19;100.00
50349;BME280;36250;48.740;22.174;2022-12-26T00:54:40;101082.09;;;5.17;100.00
50349;BME280;36250;48.740;22.174;2022-12-26T00:57:05;101085.66;;;5.16;100.00
50349;BME280;36250;48.740;22.174;2022-12-26T00:59:31;101070.03;;;5.15;100.00
50349;BME280;36250;48.740;22.174;2022-12-26T01:01:56;101069.06;;;5.16;100.00
50349;BME280;36250;48.740;22.174;2022-12-26T01:04:21;101071.44;;;5.19;100.00
50349;BME280;36250;48.740;22.174;2022-12-26T01:06:46;101058.44;;;5.17;100.00
50349;BME280;36250;48.740;22.174;2022-12-26T01:09:11;101046.13;;;5.18;100.00
50349;BME280;36250;48.740;22.174;2022-12-26T01:11:39;101044.34;;;5.18;100.00
50349;BME280;36250;48.740;22.174;2022-12-26T01:14:04;101036.75;;;5.15;100.00
50349;BME280;36250;48.740;22.174;2022-12-26T01:16:30;101039.88;;;5.09;100.00
50349;BME280;36250;48.740;22.174;2022-12-26T01:18:55;101046.81;;;5.10;100.00
50349;BME280;36250;48.740;22.174;2022-12-26T01:21:20;101036.31;;;5.10;100.00
50349;BME280;36250;48.740;22.174;2022-12-26T01:23:45;101028.69;;;5.07;100.00
50349;BME280;36250;48.740;22.174;2022-12-26T01:26:11;101020.69;;;5.08;100.00
50349;BME280;36250;48.740;22.174;2022-12-26T01:28:36;101018.16;;;5.07;100.00
50349;BME280;36250;48.740;22.174;2022-12-26T01:31:02;101017.75;;;5.02;100.00
50349;BME280;36250;48.740;22.174;2022-12-26T01:33:27;101015.00;;;5.03;100.00
50349;BME280;36250;48.740;22.174;2022-12-26T01:35:52;101010.28;;;5.07;100.00
50349;BME280;36250;48.740;22.174;2022-12-26T01:38:18;101024.97;;;5.10;100.00
50349;BME280;36250;48.740;22.174;2022-12-26T01:40:43;101028.44;;;5.10;100.00
50349;BME280;36250;48.740;22.174;2022-12-26T01:43:12;101037.00;;;5.12;100.00
50349;BME280;36250;48.740;22.174;2022-12-26T01:45:38;101041.56;;;5.10;100.00
50349;BME280;36250;48.740;22.174;2022-12-26T01:48:20;101039.47;;;5.14;100.00
50349;BME280;36250;48.740;22.174;2022-12-26T01:51:07;101047.50;;;5.12;100.00
50349;BME280;36250;48.740;22.174;2022-12-26T01:53:33;101037.25;;;5.09;100.00
50349;BME280;36250;48.740;22.174;2022-12-26T01:56:02;101029.13;;;5.12;100.00
50349;BME280;36250;48.740;22.174;2022-12-26T01:58:30;101014.06;;;5.14;100.00
50349;BME280;36250;48.740;22.174;2022-12-26T02:00:57;101007.97;;;5.14;100.00
50349;BME280;36250;48.740;22.174;2022-12-26T02:03:23;101014.06;;;5.14;100.00
50349;BME280;36250;48.740;22.174;2022-12-26T02:06:07;101013.22;;;5.14;100.00
50349;BME280;36250;48.740;22.174;2022-12-26T02:08:34;101020.28;;;5.13;100.00
50349;BME280;36250;48.740;22.174;2022-12-26T02:13:25;101007.97;;;5.14;100.00
50349;BME280;36250;48.740;22.174;2022-12-26T02:15:51;101008.38;;;5.19;100.00
50349;BME280;36250;48.740;22.174;2022-12-26T02:18:16;101009.09;;;5.21;100.00
50349;BME280;36250;48.740;22.174;2022-12-26T02:20:46;101008.13;;;5.22;100.00
50349;BME280;36250;48.740;22.174;2022-12-26T02:31:28;100995.69;;;5.24;100.00
50349;BME280;36250;48.740;22.174;2022-12-26T02:36:55;101002.75;;;5.33;100.00
50349;BME280;36250;48.740;22.174;2022-12-26T02:39:06;100997.22;;;5.36;100.00
50349;BME280;36250;48.740;22.174;2022-12-26T02:41:45;100994.44;;;5.38;100.00
50349;BME280;36250;48.740;22.174;2022-12-26T02:47:17;100981.59;;;5.45;100.00
50349;BME280;36250;48.740;22.174;2022-12-26T02:50:00;100965.16;;;5.43;100.00
50349;BME280;36250;48.740;22.174;2022-12-26T02:52:50;100962.38;;;5.44;100.00
50349;BME280;36250;48.740;22.174;2022-12-26T02:55:38;100958.94;;;5.44;100.00
50349;BME280;36250;48.740;22.174;2022-12-26T02:58:33;100956.84;;;5.38;100.00
50349;BME280;36250;48.740;22.174;2022-12-26T03:01:21;100956.00;;;5.37;100.00
50349;BME280;36250;48.740;22.174;2022-12-26T03:04:08;100956.84;;;5.38;100.00
50349;BME280;36250;48.740;22.174;2022-12-26T03:06:55;100963.63;;;5.40;100.00
50349;BME280;36250;48.740;22.174;2022-12-26T03:09:40;100967.78;;;5.43;100.00
50349;BME280;36250;48.740;22.174;2022-12-26T03:12:42;100974.81;;;5.42;100.00
50349;BME280;36250;48.740;22.174;2022-12-26T03:15:27;100979.78;;;5.45;100.00
50349;BME280;36250;48.740;22.174;2022-12-26T03:18:14;100975.78;;;5.51;100.00
50349;BME280;36250;48.740;22.174;2022-12-26T03:20:40;100966.81;;;5.54;100.00
50349;BME280;36250;48.740;22.174;2022-12-26T03:23:07;100966.53;;;5.57;100.00
50349;BME280;36250;48.740;22.174;2022-12-26T03:28:17;100959.47;;;5.57;100.00
50349;BME280;36250;48.740;22.174;2022-12-26T03:30:43;100961.41;;;5.55;100.00
50349;BME280;36250;48.740;22.174;2022-12-26T03:33:24;100973.44;;;5.58;100.00
50349;BME280;36250;48.740;22.174;2022-12-26T03:36:33;100984.94;;;5.57;100.00
50349;BME280;36250;48.740;22.174;2022-12-26T03:49:53;101014.53;;;5.49;100.00
50349;BME280;36250;48.740;22.174;2022-12-26T03:52:51;101020.06;;;5.56;100.00
50349;BME280;36250;48.740;22.174;2022-12-26T03:55:57;101008.72;;;5.55;100.00
50349;BME280;36250;48.740;22.174;2022-12-26T03:58:58;100993.22;;;5.62;100.00
50349;BME280;36250;48.740;22.174;2022-12-26T04:01:44;100989.63;;;5.73;100.00
50349;BME280;36250;48.740;22.174;2022-12-26T04:04:29;101002.50;;;5.76;100.00
50349;BME280;36250;48.740;22.174;2022-12-26T04:07:26;100996.69;;;5.72;100.00
50349;BME280;36250;48.740;22.174;2022-12-26T04:10:12;100995.97;;;5.60;100.00
50349;BME280;36250;48.740;22.174;2022-12-26T04:12:58;100988.09;;;5.60;100.00
50349;BME280;36250;48.740;22.174;2022-12-26T04:15:48;100996.13;;;5.59;100.00
50349;BME280;36250;48.740;22.174;2022-12-26T04:18:40;100986.72;;;5.56;100.00
50349;BME280;36250;48.740;22.174;2022-12-26T04:21:26;100984.06;;;5.46;100.00
50349;BME280;36250;48.740;22.174;2022-12-26T04:24:17;100976.34;;;5.45;100.00
50349;BME280;36250;48.740;22.174;2022-12-26T04:27:03;100977.56;;;5.50;100.00
50349;BME280;36250;48.740;22.174;2022-12-26T04:29:48;100961.69;;;5.52;100.00
50349;BME280;36250;48.740;22.174;2022-12-26T04:35:21;100969.00;;;5.48;100.00
50349;BME280;36250;48.740;22.174;2022-12-26T04:38:06;100974.81;;;5.42;100.00
50349;BME280;36250;48.740;22.174;2022-12-26T04:40:53;100979.53;;;5.39;100.00
50349;BME280;36250;48.740;22.174;2022-12-26T04:43:39;100975.94;;;5.40;100.00
50349;BME280;36250;48.740;22.174;2022-12-26T04:46:24;100962.66;;;5.41;100.00
50349;BME280;36250;48.740;22.174;2022-12-26T04:48:49;100964.19;;;5.44;100.00
50349;BME280;36250;48.740;22.174;2022-12-26T04:51:34;100962.38;;;5.34;100.00
50349;BME280;36250;48.740;22.174;2022-12-26T04:54:00;100955.03;;;5.18;100.00
50349;BME280;36250;48.740;22.174;2022-12-26T04:56:25;100953.78;;;5.13;100.00
50349;BME280;36250;48.740;22.174;2022-12-26T04:58:51;100946.75;;;5.13;100.00
50349;BME280;36250;48.740;22.174;2022-12-26T05:01:16;100940.09;;;5.09;100.00
50349;BME280;36250;48.740;22.174;2022-12-26T05:04:00;100930.44;;;5.19;100.00
50349;BME280;36250;48.740;22.174;2022-12-26T05:06:44;100925.16;;;5.29;100.00
50349;BME280;36250;48.740;22.174;2022-12-26T05:09:27;100915.09;;;5.34;100.00
50349;BME280;36250;48.740;22.174;2022-12-26T05:11:59;100908.72;;;5.37;100.00
50349;BME280;36250;48.740;22.174;2022-12-26T05:14:24;100897.94;;;5.40;100.00
50349;BME280;36250;48.740;22.174;2022-12-26T05:16:50;100897.81;;;5.42;100.00
50349;BME280;36250;48.740;22.174;2022-12-26T05:19:33;100899.47;;;5.43;100.00
50349;BME280;36250;48.740;22.174;2022-12-26T05:22:17;100899.31;;;5.54;100.00
50349;BME280;36250;48.740;22.174;2022-12-26T05:25:02;100895.97;;;5.62;100.00
50349;BME280;36250;48.740;22.174;2022-12-26T05:27:46;100895.69;;;5.65;100.00
50349;BME280;36250;48.740;22.174;2022-12-26T05:30:30;100899.13;;;5.65;100.00
50349;BME280;36250;48.740;22.174;2022-12-26T05:32:55;100896.38;;;5.67;100.00
50349;BME280;36250;48.740;22.174;2022-12-26T05:35:39;100899.41;;;5.72;100.00
50349;BME280;36250;48.740;22.174;2022-12-26T05:38:04;100899.81;;;5.77;100.00
50349;BME280;36250;48.740;22.174;2022-12-26T05:40:30;100892.09;;;5.76;100.00
50349;BME280;36250;48.740;22.174;2022-12-26T05:42:55;100893.88;;;5.75;100.00
50349;BME280;36250;48.740;22.174;2022-12-26T05:45:21;100894.72;;;5.76;100.00
50349;BME280;36250;48.740;22.174;2022-12-26T05:47:46;100888.63;;;5.75;100.00
50349;BME280;36250;48.740;22.174;2022-12-26T05:50:11;100881.28;;;5.79;100.00
50349;BME280;36250;48.740;22.174;2022-12-26T05:52:36;100875.56;;;5.84;100.00
50349;BME280;36250;48.740;22.174;2022-12-26T05:55:02;100869.22;;;5.86;100.00
50349;BME280;36250;48.740;22.174;2022-12-26T05:57:27;100860.50;;;5.86;100.00
50349;BME280;36250;48.740;22.174;2022-12-26T05:59:52;100870.19;;;5.85;100.00
50349;BME280;36250;48.740;22.174;2022-12-26T06:02:17;100878.75;;;5.87;100.00
50349;BME280;36250;48.740;22.174;2022-12-26T06:04:43;100883.19;;;5.87;100.00
50349;BME280;36250;48.740;22.174;2022-12-26T06:07:08;100869.06;;;5.88;100.00
50349;BME280;36250;48.740;22.174;2022-12-26T06:09:33;100851.63;;;5.87;100.00
50349;BME280;36250;48.740;22.174;2022-12-26T06:11:58;100842.75;;;5.88;100.00
50349;BME280;36250;48.740;22.174;2022-12-26T06:14:24;100857.72;;;5.87;100.00
50349;BME280;36250;48.740;22.174;2022-12-26T06:16:49;100848.03;;;5.88;100.00
50349;BME280;36250;48.740;22.174;2022-12-26T06:19:14;100848.19;;;5.86;100.00
50349;BME280;36250;48.740;22.174;2022-12-26T06:21:39;100838.34;;;5.88;100.00
50349;BME280;36250;48.740;22.174;2022-12-26T06:24:05;100828.66;;;5.89;100.00
50349;BME280;36250;48.740;22.174;2022-12-26T06:26:30;100826.84;;;5.89;100.00
50349;BME280;36250;48.740;22.174;2022-12-26T06:28:55;100836.53;;;5.89;100.00
50349;BME280;36250;48.740;22.174;2022-12-26T06:31:21;100850.66;;;5.88;100.00
50349;BME280;36250;48.740;22.174;2022-12-26T06:33:47;100844.28;;;5.90;100.00
50349;BME280;36250;48.740;22.174;2022-12-26T06:36:13;100843.19;;;5.93;100.00
50349;BME280;36250;48.740;22.174;2022-12-26T06:38:39;100841.53;;;5.92;100.00
50349;BME280;36250;48.740;22.174;2022-12-26T06:41:05;100848.28;;;5.94;100.00
50349;BME280;36250;48.740;22.174;2022-12-26T06:43:31;100847.47;;;5.94;100.00
50349;BME280;36250;48.740;22.174;2022-12-26T06:45:56;100846.50;;;5.95;100.00
50349;BME280;36250;48.740;22.174;2022-12-26T06:48:22;100845.22;;;5.99;100.00
50349;BME280;36250;48.740;22.174;2022-12-26T06:50:48;100847.44;;;6.04;100.00
50349;BME280;36250;48.740;22.174;2022-12-26T06:53:13;100845.19;;;6.09;100.00
50349;BME280;36250;48.740;22.174;2022-12-26T06:55:38;100848.81;;;6.08;100.00
50349;BME280;36250;48.740;22.174;2022-12-26T06:58:03;100855.03;;;6.07;100.00
50349;BME280;36250;48.740;22.174;2022-12-26T07:00:29;100846.84;;;6.10;100.00
50349;BME280;36250;48.740;22.174;2022-12-26T07:02:54;100844.78;;;6.14;100.00
50349;BME280;36250;48.740;22.174;2022-12-26T07:05:19;100831.91;;;6.11;100.00
50349;BME280;36250;48.740;22.174;2022-12-26T07:07:49;100834.41;;;6.12;100.00
50349;BME280;36250;48.740;22.174;2022-12-26T07:10:14;100837.72;;;6.14;100.00
50349;BME280;36250;48.740;22.174;2022-12-26T07:12:39;100842.44;;;6.11;100.00
50349;BME280;36250;48.740;22.174;2022-12-26T07:15:05;100838.72;;;6.13;100.00
50349;BME280;36250;48.740;22.174;2022-12-26T07:17:33;100830.81;;;6.13;100.00
50349;BME280;36250;48.740;22.174;2022-12-26T07:19:59;100829.69;;;6.16;100.00
50349;BME280;36250;48.740;22.174;2022-12-26T07:22:24;100831.78;;;6.12;100.00
50349;BME280;36250;48.740;22.174;2022-12-26T07:24:50;100837.56;;;6.16;100.00
50349;BME280;36250;48.740;22.174;2022-12-26T07:27:15;100838.94;;;6.20;100.00
50349;BME280;36250;48.740;22.174;2022-12-26T07:29:41;100837.16;;;6.20;100.00
50349;BME280;36250;48.740;22.174;2022-12-26T07:32:06;100833.38;;;6.23;100.00
50349;BME280;36250;48.740;22.174;2022-12-26T07:34:31;100833.09;;;6.26;100.00
50349;BME280;36250;48.740;22.174;2022-12-26T07:36:56;100836.56;;;6.27;100.00
50349;BME280;36250;48.740;22.174;2022-12-26T07:39:22;100846.91;;;6.28;100.00
50349;BME280;36250;48.740;22.174;2022-12-26T07:41:47;100840.00;;;6.27;100.00
50349;BME280;36250;48.740;22.174;2022-12-26T07:44:25;100844.16;;;6.30;100.00
50349;BME280;36250;48.740;22.174;2022-12-26T07:46:50;100844.16;;;6.30;100.00
50349;BME280;36250;48.740;22.174;2022-12-26T07:49:15;100854.38;;;6.33;100.00
50349;BME280;36250;48.740;22.174;2022-12-26T07:51:41;100848.16;;;6.34;100.00
50349;BME280;36250;48.740;22.174;2022-12-26T07:54:06;100862.81;;;6.36;100.00
50349;BME280;36250;48.740;22.174;2022-12-26T07:56:32;100865.16;;;6.40;100.00
50349;BME280;36250;48.740;22.174;2022-12-26T07:58:57;100873.72;;;6.42;100.00
50349;BME280;36250;48.740;22.174;2022-12-26T08:01:22;100868.31;;;6.43;100.00
50349;BME280;36250;48.740;22.174;2022-12-26T08:03:48;100861.25;;;6.44;100.00
50349;BME280;36250;48.740;22.174;2022-12-26T08:06:13;100860.56;;;6.42;100.00
50349;BME280;36250;48.740;22.174;2022-12-26T08:08:39;100862.53;;;6.40;100.00
50349;BME280;36250;48.740;22.174;2022-12-26T08:11:05;100864.56;;;6.46;100.00
50349;BME280;36250;48.740;22.174;2022-12-26T08:13:30;100871.63;;;6.45;100.00
50349;BME280;36250;48.740;22.174;2022-12-26T08:15:56;100868.84;;;6.47;100.00
50349;BME280;36250;48.740;22.174;2022-12-26T08:18:21;100870.34;;;6.49;100.00
50349;BME280;36250;48.740;22.174;2022-12-26T08:20:47;100869.09;;;6.54;100.00
50349;BME280;36250;48.740;22.174;2022-12-26T08:23:12;100867.16;;;6.56;100.00
50349;BME280;36250;48.740;22.174;2022-12-26T08:25:37;100875.84;;;6.56;100.00
50349;BME280;36250;48.740;22.174;2022-12-26T08:28:02;100876.53;;;6.58;100.00
50349;BME280;36250;48.740;22.174;2022-12-26T08:30:28;100889.03;;;6.56;100.00
50349;BME280;36250;48.740;22.174;2022-12-26T08:32:53;100888.25;;;6.46;100.00
50349;BME280;36250;48.740;22.174;2022-12-26T08:35:18;100877.19;;;6.42;100.00
50349;BME280;36250;48.740;22.174;2022-12-26T08:37:45;100879.00;;;6.42;100.00
50349;BME280;36250;48.740;22.174;2022-12-26T08:40:10;100879.50;;;6.45;100.00
50349;BME280;36250;48.740;22.174;2022-12-26T08:42:36;100881.03;;;6.48;100.00
50349;BME280;36250;48.740;22.174;2022-12-26T08:45:01;100879.69;;;6.44;100.00
50349;BME280;36250;48.740;22.174;2022-12-26T08:47:26;100875.47;;;6.51;100.00
50349;BME280;36250;48.740;22.174;2022-12-26T08:49:51;100875.31;;;6.52;100.00
50349;BME280;36250;48.740;22.174;2022-12-26T08:52:17;100870.75;;;6.55;100.00
50349;BME280;36250;48.740;22.174;2022-12-26T08:54:42;100869.63;;;6.57;100.00
50349;BME280;36250;48.740;22.174;2022-12-26T08:57:07;100862.25;;;6.61;100.00
50349;BME280;36250;48.740;22.174;2022-12-26T08:59:33;100865.72;;;6.61;100.00
50349;BME280;36250;48.740;22.174;2022-12-26T09:01:58;100872.63;;;6.62;100.00
50349;BME280;36250;48.740;22.174;2022-12-26T09:04:24;100863.44;;;6.66;100.00
50349;BME280;36250;48.740;22.174;2022-12-26T09:06:49;100864.44;;;6.65;100.00
50349;BME280;36250;48.740;22.174;2022-12-26T09:09:14;100859.63;;;6.61;100.00
50349;BME280;36250;48.740;22.174;2022-12-26T09:11:39;100857.81;;;6.61;100.00
50349;BME280;36250;48.740;22.174;2022-12-26T09:14:05;100852.72;;;6.60;100.00
50349;BME280;36250;48.740;22.174;2022-12-26T09:16:32;100858.19;;;6.66;100.00
50349;BME280;36250;48.740;22.174;2022-12-26T09:19:00;100849.84;;;6.71;100.00
50349;BME280;36250;48.740;22.174;2022-12-26T09:21:26;100844.28;;;6.74;100.00
50349;BME280;36250;48.740;22.174;2022-12-26T09:23:55;100837.06;;;6.76;100.00
50349;BME280;36250;48.740;22.174;2022-12-26T09:26:21;100840.91;;;6.82;100.00
50349;BME280;36250;48.740;22.174;2022-12-26T09:28:46;100850.00;;;6.88;100.00
50349;BME280;36250;48.740;22.174;2022-12-26T09:31:13;100852.50;;;6.89;100.00
50349;BME280;36250;48.740;22.174;2022-12-26T09:33:38;100846.94;;;6.92;100.00
50349;BME280;36250;48.740;22.174;2022-12-26T09:36:14;100854.38;;;6.97;100.00
50349;BME280;36250;48.740;22.174;2022-12-26T09:38:39;100846.31;;;6.99;100.00
50349;BME280;36250;48.740;22.174;2022-12-26T09:49:05;100843.38;;;7.02;100.00
50349;BME280;36250;48.740;22.174;2022-12-26T09:51:34;100837.44;;;7.00;100.00
50349;BME280;36250;48.740;22.174;2022-12-26T09:54:00;100831.88;;;7.03;100.00
50349;BME280;36250;48.740;22.174;2022-12-26T09:56:28;100820.66;;;7.01;100.00
50349;BME280;36250;48.740;22.174;2022-12-26T09:58:56;100820.81;;;6.99;100.00
50349;BME280;36250;48.740;22.174;2022-12-26T10:01:30;100822.63;;;6.99;100.00
50349;BME280;36250;48.740;22.174;2022-12-26T10:03:58;100807.50;;;7.01;100.00
50349;BME280;36250;48.740;22.174;2022-12-26T10:06:29;100796.13;;;7.00;100.00
50349;BME280;36250;48.740;22.174;2022-12-26T10:17:02;100791.38;;;7.04;100.00
50349;BME280;36250;48.740;22.174;2022-12-26T10:24:57;100783.84;;;7.09;100.00
50349;BME280;36250;48.740;22.174;2022-12-26T10:27:24;100778.25;;;7.12;100.00
50349;BME280;36250;48.740;22.174;2022-12-26T10:29:52;100787.53;;;7.16;100.00
50349;BME280;36250;48.740;22.174;2022-12-26T10:32:24;100797.47;;;7.22;100.00
50349;BME280;36250;48.740;22.174;2022-12-26T10:34:54;100795.00;;;7.29;100.00
50349;BME280;36250;48.740;22.174;2022-12-26T10:42:25;100801.78;;;7.32;100.00
50349;BME280;36250;48.740;22.174;2022-12-26T10:44:51;100794.69;;;7.32;100.00
50349;BME280;36250;48.740;22.174;2022-12-26T10:49:48;100788.84;;;7.38;100.00
50349;BME280;36250;48.740;22.174;2022-12-26T10:52:14;100786.66;;;7.34;100.00
50349;BME280;36250;48.740;22.174;2022-12-26T10:54:40;100790.81;;;7.36;100.00
50349;BME280;36250;48.740;22.174;2022-12-26T10:57:06;100777.09;;;7.33;100.00
50349;BME280;36250;48.740;22.174;2022-12-26T10:59:42;100780.41;;;7.35;100.00
50349;BME280;36250;48.740;22.174;2022-12-26T11:02:28;100773.94;;;7.29;100.00
50349;BME280;36250;48.740;22.174;2022-12-26T11:07:22;100775.44;;;7.32;100.00
50349;BME280;36250;48.740;22.174;2022-12-26T11:09:48;100774.78;;;7.30;100.00
50349;BME280;36250;48.740;22.174;2022-12-26T11:14:46;100759.78;;;7.30;100.00
50349;BME280;36250;48.740;22.174;2022-12-26T11:17:33;100746.78;;;7.29;100.00
50349;BME280;36250;48.740;22.174;2022-12-26T11:22:43;100765.34;;;7.27;100.00
50349;BME280;36250;48.740;22.174;2022-12-26T11:27:33;100784.78;;;7.26;100.00
50349;BME280;36250;48.740;22.174;2022-12-26T11:32:45;100796.69;;;7.12;100.00
50349;BME280;36250;48.740;22.174;2022-12-26T11:35:15;100795.88;;;7.12;100.00
50349;BME280;36250;48.740;22.174;2022-12-26T11:37:41;100798.53;;;7.12;100.00
50349;BME280;36250;48.740;22.174;2022-12-26T11:40:15;100802.13;;;7.10;100.00
50349;BME280;36250;48.740;22.174;2022-12-26T11:42:41;100796.34;;;7.07;100.00
50349;BME280;36250;48.740;22.174;2022-12-26T11:45:09;100796.13;;;7.00;100.00
50349;BME280;36250;48.740;22.174;2022-12-26T11:47:34;100789.78;;;7.11;100.00
50349;BME280;36250;48.740;22.174;2022-12-26T11:50:01;100787.00;;;7.13;100.00
50349;BME280;36250;48.740;22.174;2022-12-26T11:52:43;100777.28;;;7.13;100.00
50349;BME280;36250;48.740;22.174;2022-12-26T11:57:57;100755.84;;;7.08;100.00
50349;BME280;36250;48.740;22.174;2022-12-26T12:00:22;100757.81;;;7.06;100.00
50349;BME280;36250;48.740;22.174;2022-12-26T12:02:48;100753.81;;;7.02;100.00
50349;BME280;36250;48.740;22.174;2022-12-26T12:05:15;100731.63;;;7.04;100.00
50349;BME280;36250;48.740;22.174;2022-12-26T12:07:50;100728.69;;;7.07;100.00
50349;BME280;36250;48.740;22.174;2022-12-26T12:15:56;100742.66;;;7.08;100.00
50349;BME280;36250;48.740;22.174;2022-12-26T12:18:41;100767.84;;;7.02;100.00
50349;BME280;36250;48.740;22.174;2022-12-26T12:26:23;100772.88;;;6.95;100.00
50349;BME280;36250;48.740;22.174;2022-12-26T12:34:17;100767.03;;;7.10;100.00
50349;BME280;36250;48.740;22.174;2022-12-26T12:44:11;100763.19;;;7.22;100.00
50349;BME280;36250;48.740;22.174;2022-12-26T12:52:00;100761.47;;;7.13;100.00
50349;BME280;36250;48.740;22.174;2022-12-26T13:01:48;100728.38;;;7.10;100.00
50349;BME280;36250;48.740;22.174;2022-12-26T13:04:28;100732.50;;;7.13;100.00
50349;BME280;36250;48.740;22.174;2022-12-26T13:06:58;100753.75;;;7.12;100.00
50349;BME280;36250;48.740;22.174;2022-12-26T13:09:30;100749.59;;;7.09;100.00
50349;BME280;36250;48.740;22.174;2022-12-26T13:12:03;100749.66;;;7.17;100.00
50349;BME280;36250;48.740;22.174;2022-12-26T13:14:30;100748.03;;;7.16;100.00
50349;BME280;36250;48.740;22.174;2022-12-26T13:17:08;100754.41;;;7.14;100.00
50349;BME280;36250;48.740;22.174;2022-12-26T13:19:36;100763.28;;;7.13;100.00
50349;BME280;36250;48.740;22.174;2022-12-26T13:22:05;100767.72;;;7.12;100.00
50349;BME280;36250;48.740;22.174;2022-12-26T13:24:35;100763.44;;;7.11;100.00
50349;BME280;36250;48.740;22.174;2022-12-26T13:27:18;100755.53;;;7.11;100.00
50349;BME280;36250;48.740;22.174;2022-12-26T13:29:46;100754.56;;;7.12;100.00
50349;BME280;36250;48.740;22.174;2022-12-26T13:32:23;100774.38;;;7.16;100.00
50349;BME280;36250;48.740;22.174;2022-12-26T13:34:50;100770.75;;;7.17;100.00
50349;BME280;36250;48.740;22.174;2022-12-26T13:39:56;100767.72;;;7.12;100.00
50349;BME280;36250;48.740;22.174;2022-12-26T13:42:23;100785.00;;;7.06;100.00
50349;BME280;36250;48.740;22.174;2022-12-26T13:47:54;100764.41;;;7.10;100.00
50349;BME280;36250;48.740;22.174;2022-12-26T13:53:06;100764.81;;;7.15;100.00
50349;BME280;36250;48.740;22.174;2022-12-26T13:55:48;100758.84;;;7.13;100.00
50349;BME280;36250;48.740;22.174;2022-12-26T13:58:20;100759.69;;;7.14;100.00
50349;BME280;36250;48.740;22.174;2022-12-26T14:00:47;100761.63;;;7.12;100.00
50349;BME280;36250;48.740;22.174;2022-12-26T14:06:11;100773.69;;;7.14;100.00
50349;BME280;36250;48.740;22.174;2022-12-26T14:11:11;100766.19;;;7.01;100.00
50349;BME280;36250;48.740;22.174;2022-12-26T14:13:47;100758.97;;;7.03;100.00
50349;BME280;36250;48.740;22.174;2022-12-26T14:19:07;100741.63;;;7.01;100.00
50349;BME280;36250;48.740;22.174;2022-12-26T14:34:25;100756.28;;;6.95;100.00
50349;BME280;36250;48.740;22.174;2022-12-26T14:37:08;100758.91;;;6.95;100.00
50349;BME280;36250;48.740;22.174;2022-12-26T14:42:21;100766.94;;;6.93;100.00
50349;BME280;36250;48.740;22.174;2022-12-26T14:45:48;100765.59;;;6.89;100.00
50349;BME280;36250;48.740;22.174;2022-12-26T14:47:54;100779.06;;;6.86;100.00
50349;BME280;36250;48.740;22.174;2022-12-26T14:55:46;100762.97;;;6.89;100.00
50349;BME280;36250;48.740;22.174;2022-12-26T15:00:49;100763.94;;;6.88;100.00
50349;BME280;36250;48.740;22.174;2022-12-26T15:05:45;100752.44;;;6.89;100.00
50349;BME280;36250;48.740;22.174;2022-12-26T15:08:31;100760.03;;;6.92;100.00
50349;BME280;36250;48.740;22.174;2022-12-26T15:13:31;100747.22;;;6.98;100.00
50349;BME280;36250;48.740;22.174;2022-12-26T15:31:31;100738.91;;;7.10;100.00
50349;BME280;36250;48.740;22.174;2022-12-26T15:36:54;100747.63;;;7.11;100.00
50349;BME280;36250;48.740;22.174;2022-12-26T15:42:03;100742.34;;;7.11;100.00
50349;BME280;36250;48.740;22.174;2022-12-26T15:47:28;100759.69;;;7.14;100.00
50349;BME280;36250;48.740;22.174;2022-12-26T15:52:20;100757.66;;;7.07;100.00
50349;BME280;36250;48.740;22.174;2022-12-26T16:02:33;100754.50;;;7.04;100.00
50349;BME280;36250;48.740;22.174;2022-12-26T16:05:06;100763.56;;;7.01;100.00
50349;BME280;36250;48.740;22.174;2022-12-26T16:07:44;100763.25;;;7.04;100.00
50349;BME280;36250;48.740;22.174;2022-12-26T16:13:14;100755.69;;;7.09;100.00